الصفحة الرئيسية
METAR-TAF:

METAR-TAF

مطار :

مطار وجدة أنجاد

وجدة, المغرب

دائرة عرض: 34-47N, خط طول: 001-56W, ارتفاع: 468 متر

مراقبة الطقس الحالي

تاريخ ووقت الإصدار 33 دقيقة قبل الساعة 11:00UTC
ريح 7 عقدة من الجنوب الغربي, الاتجاه يتراوح بين الجنوب الشرقي و الجنوب الغربي
درجة الحرارة 13°درجة مئوية
الرطوبة 67%
ضغط 1014 hPa
الرؤية 10 كم أو أكثر
غيوم قليلة على ارتفاع 3000 قدم
غيوم مفككة على ارتفاع 10000 قدم

METAR: GMFO 201100Z 22007KT 130V230 9999 FEW030 BKN100 13/07 Q1014 NOSIG

زمن: 12:33 (11:33 UTC)

توقعات

تاريخ ووقت الإصدار 6ساعات و 33 دقيقة قبل الساعة 05:00UTC
التوقعات صالحة من20 الساعة 06 UTC إلى 21 الساعة 12 UTC
ريح 4 عقدة من الجنوب الغربي
الرؤية 10 كم أو أكثر
الغيوم لا تقل 1500 م ولا وجود لمزنة ركامية السحاب الأسود
مؤقت
من 20 الساعة 12 UTC إلى 20 الساعة 20 UTC
ريح 15 عقدة من الجنوب الغربي

TAF: GMFO 200500Z 2006/2112 22004KT CAVOK TEMPO 2012/2020 23015KT

أرصاد الطقس والتوقعات من أكثر من 4000 مطار (تقارير الطقس للمطار METAR والتنبؤ بالطقس بالمطارTAF).

المحطات المتاحة هي النقط الصفراء والحمراء على الخريطة.

حرك المؤشر فوق النقطة لمعرفة اسم المحطة.

ثم انقر لمعرفة أرصاد وتوقعات الطقس.

لتغيير الخارطة: اضغط على الأزرار الخضراء مع رمز الصليب الأسود للتكبير. على الزر الأخضر مع شرطة للتصغير، أو على الأسهم الخضراء للخرائط المجاورة.


METAR-TAF: